sensor_id;sensor_type;location;lat;lon;timestamp;P1;durP1;ratioP1;P2;durP2;ratioP2
19589;SDS011;12231;42.782;23.388;2023-02-03T00:01:40;9.17;;;5.00;;
19589;SDS011;12231;42.782;23.388;2023-02-03T00:04:05;7.60;;;4.40;;
19589;SDS011;12231;42.782;23.388;2023-02-03T00:06:31;9.53;;;5.60;;
19589;SDS011;12231;42.782;23.388;2023-02-03T00:08:56;7.33;;;4.53;;
19589;SDS011;12231;42.782;23.388;2023-02-03T00:11:23;8.07;;;4.73;;
19589;SDS011;12231;42.782;23.388;2023-02-03T00:13:49;6.23;;;4.67;;
19589;SDS011;12231;42.782;23.388;2023-02-03T00:16:14;6.40;;;5.07;;
19589;SDS011;12231;42.782;23.388;2023-02-03T00:18:40;8.13;;;5.20;;
19589;SDS011;12231;42.782;23.388;2023-02-03T00:21:05;6.80;;;5.20;;
19589;SDS011;12231;42.782;23.388;2023-02-03T00:23:31;7.43;;;5.10;;
19589;SDS011;12231;42.782;23.388;2023-02-03T00:25:57;7.80;;;5.70;;
19589;SDS011;12231;42.782;23.388;2023-02-03T00:28:30;8.23;;;5.20;;
19589;SDS011;12231;42.782;23.388;2023-02-03T00:30:55;9.37;;;5.50;;
19589;SDS011;12231;42.782;23.388;2023-02-03T00:33:21;8.90;;;5.33;;
19589;SDS011;12231;42.782;23.388;2023-02-03T00:35:46;8.70;;;5.20;;
19589;SDS011;12231;42.782;23.388;2023-02-03T00:38:12;8.60;;;5.53;;
19589;SDS011;12231;42.782;23.388;2023-02-03T00:40:37;8.27;;;5.07;;
19589;SDS011;12231;42.782;23.388;2023-02-03T00:43:02;7.93;;;5.73;;
19589;SDS011;12231;42.782;23.388;2023-02-03T00:45:28;7.20;;;5.27;;
19589;SDS011;12231;42.782;23.388;2023-02-03T00:47:53;7.33;;;4.90;;
19589;SDS011;12231;42.782;23.388;2023-02-03T00:50:19;6.50;;;5.00;;
19589;SDS011;12231;42.782;23.388;2023-02-03T00:52:44;7.67;;;4.77;;
19589;SDS011;12231;42.782;23.388;2023-02-03T00:55:09;9.37;;;4.93;;
19589;SDS011;12231;42.782;23.388;2023-02-03T00:57:35;6.27;;;4.67;;
19589;SDS011;12231;42.782;23.388;2023-02-03T01:00:00;7.23;;;5.07;;
19589;SDS011;12231;42.782;23.388;2023-02-03T01:02:25;9.00;;;5.53;;
19589;SDS011;12231;42.782;23.388;2023-02-03T01:04:51;7.97;;;5.30;;
19589;SDS011;12231;42.782;23.388;2023-02-03T01:07:16;7.23;;;5.10;;
19589;SDS011;12231;42.782;23.388;2023-02-03T01:09:42;6.57;;;4.83;;
19589;SDS011;12231;42.782;23.388;2023-02-03T01:12:07;8.73;;;4.97;;
19589;SDS011;12231;42.782;23.388;2023-02-03T01:14:32;6.53;;;4.50;;
19589;SDS011;12231;42.782;23.388;2023-02-03T01:16:58;6.03;;;5.20;;
19589;SDS011;12231;42.782;23.388;2023-02-03T01:19:24;9.20;;;5.43;;
19589;SDS011;12231;42.782;23.388;2023-02-03T01:21:49;9.57;;;5.57;;
19589;SDS011;12231;42.782;23.388;2023-02-03T01:24:15;7.87;;;5.70;;
19589;SDS011;12231;42.782;23.388;2023-02-03T01:26:41;9.63;;;5.57;;
19589;SDS011;12231;42.782;23.388;2023-02-03T01:29:07;9.07;;;6.10;;
19589;SDS011;12231;42.782;23.388;2023-02-03T01:31:34;8.43;;;5.10;;
19589;SDS011;12231;42.782;23.388;2023-02-03T01:34:07;8.70;;;5.43;;
19589;SDS011;12231;42.782;23.388;2023-02-03T01:36:36;7.80;;;5.33;;
19589;SDS011;12231;42.782;23.388;2023-02-03T01:39:02;7.63;;;4.90;;
19589;SDS011;12231;42.782;23.388;2023-02-03T01:41:30;5.33;;;4.83;;
19589;SDS011;12231;42.782;23.388;2023-02-03T01:43:58;6.93;;;4.80;;
19589;SDS011;12231;42.782;23.388;2023-02-03T01:51:51;5.07;;;4.23;;
19589;SDS011;12231;42.782;23.388;2023-02-03T01:54:19;4.23;;;3.70;;
19589;SDS011;12231;42.782;23.388;2023-02-03T01:56:58;10.10;;;5.40;;
19589;SDS011;12231;42.782;23.388;2023-02-03T01:59:44;4.53;;;3.47;;
19589;SDS011;12231;42.782;23.388;2023-02-03T02:02:12;3.70;;;3.40;;
19589;SDS011;12231;42.782;23.388;2023-02-03T02:04:55;4.07;;;3.40;;
19589;SDS011;12231;42.782;23.388;2023-02-03T02:07:27;4.10;;;3.63;;
19589;SDS011;12231;42.782;23.388;2023-02-03T02:09:53;5.50;;;3.80;;
19589;SDS011;12231;42.782;23.388;2023-02-03T02:12:20;4.53;;;3.43;;
19589;SDS011;12231;42.782;23.388;2023-02-03T02:14:47;4.50;;;3.30;;
19589;SDS011;12231;42.782;23.388;2023-02-03T02:23:23;4.10;;;3.53;;
19589;SDS011;12231;42.782;23.388;2023-02-03T02:25:44;3.37;;;3.03;;
19589;SDS011;12231;42.782;23.388;2023-02-03T02:41:36;5.10;;;3.87;;
19589;SDS011;12231;42.782;23.388;2023-02-03T02:47:13;3.90;;;3.47;;
19589;SDS011;12231;42.782;23.388;2023-02-03T02:49:44;4.40;;;3.80;;
19589;SDS011;12231;42.782;23.388;2023-02-03T02:52:35;5.10;;;3.47;;
19589;SDS011;12231;42.782;23.388;2023-02-03T02:55:09;3.97;;;3.57;;
19589;SDS011;12231;42.782;23.388;2023-02-03T02:57:37;4.20;;;3.10;;
19589;SDS011;12231;42.782;23.388;2023-02-03T03:00:04;4.70;;;3.47;;
19589;SDS011;12231;42.782;23.388;2023-02-03T03:02:35;4.47;;;3.67;;
19589;SDS011;12231;42.782;23.388;2023-02-03T03:05:04;5.23;;;3.90;;
19589;SDS011;12231;42.782;23.388;2023-02-03T03:07:34;4.47;;;3.60;;
19589;SDS011;12231;42.782;23.388;2023-02-03T03:10:06;4.30;;;3.90;;
19589;SDS011;12231;42.782;23.388;2023-02-03T03:12:37;4.20;;;3.80;;
19589;SDS011;12231;42.782;23.388;2023-02-03T03:15:10;4.10;;;3.23;;
19589;SDS011;12231;42.782;23.388;2023-02-03T03:17:46;4.43;;;4.00;;
19589;SDS011;12231;42.782;23.388;2023-02-03T03:20:24;3.73;;;3.37;;
19589;SDS011;12231;42.782;23.388;2023-02-03T03:22:53;4.13;;;3.57;;
19589;SDS011;12231;42.782;23.388;2023-02-03T03:25:24;3.93;;;3.30;;
19589;SDS011;12231;42.782;23.388;2023-02-03T03:27:58;3.23;;;2.93;;
19589;SDS011;12231;42.782;23.388;2023-02-03T03:30:27;4.63;;;3.83;;
19589;SDS011;12231;42.782;23.388;2023-02-03T03:32:57;5.60;;;4.03;;
19589;SDS011;12231;42.782;23.388;2023-02-03T03:35:22;5.27;;;3.90;;
19589;SDS011;12231;42.782;23.388;2023-02-03T03:37:57;4.53;;;3.93;;
19589;SDS011;12231;42.782;23.388;2023-02-03T03:40:58;4.17;;;3.77;;
19589;SDS011;12231;42.782;23.388;2023-02-03T03:43:48;4.70;;;3.80;;
19589;SDS011;12231;42.782;23.388;2023-02-03T03:46:16;5.23;;;3.80;;
19589;SDS011;12231;42.782;23.388;2023-02-03T03:51:19;4.07;;;3.57;;
19589;SDS011;12231;42.782;23.388;2023-02-03T03:53:49;4.27;;;3.83;;
19589;SDS011;12231;42.782;23.388;2023-02-03T03:56:27;3.80;;;3.30;;
19589;SDS011;12231;42.782;23.388;2023-02-03T03:58:57;4.23;;;3.50;;
19589;SDS011;12231;42.782;23.388;2023-02-03T04:01:26;3.53;;;3.07;;
19589;SDS011;12231;42.782;23.388;2023-02-03T04:03:54;3.83;;;3.43;;
19589;SDS011;12231;42.782;23.388;2023-02-03T04:06:23;4.43;;;3.47;;
19589;SDS011;12231;42.782;23.388;2023-02-03T04:08:49;4.40;;;3.73;;
19589;SDS011;12231;42.782;23.388;2023-02-03T04:11:14;4.53;;;3.53;;
19589;SDS011;12231;42.782;23.388;2023-02-03T04:14:00;3.47;;;3.20;;
19589;SDS011;12231;42.782;23.388;2023-02-03T04:16:25;4.17;;;3.73;;
19589;SDS011;12231;42.782;23.388;2023-02-03T04:18:51;5.03;;;3.20;;
19589;SDS011;12231;42.782;23.388;2023-02-03T04:21:16;4.10;;;3.77;;
19589;SDS011;12231;42.782;23.388;2023-02-03T04:23:41;3.93;;;3.63;;
19589;SDS011;12231;42.782;23.388;2023-02-03T04:26:07;4.03;;;3.30;;
19589;SDS011;12231;42.782;23.388;2023-02-03T04:28:32;4.17;;;3.60;;
19589;SDS011;12231;42.782;23.388;2023-02-03T04:31:00;3.90;;;3.50;;
19589;SDS011;12231;42.782;23.388;2023-02-03T04:33:26;4.63;;;3.90;;
19589;SDS011;12231;42.782;23.388;2023-02-03T04:35:51;7.53;;;4.43;;
19589;SDS011;12231;42.782;23.388;2023-02-03T04:38:17;4.90;;;4.03;;
19589;SDS011;12231;42.782;23.388;2023-02-03T04:40:42;4.23;;;3.83;;
19589;SDS011;12231;42.782;23.388;2023-02-03T04:43:09;3.80;;;3.40;;
19589;SDS011;12231;42.782;23.388;2023-02-03T04:45:36;3.80;;;3.43;;
19589;SDS011;12231;42.782;23.388;2023-02-03T04:48:01;3.90;;;3.50;;
19589;SDS011;12231;42.782;23.388;2023-02-03T04:50:28;4.27;;;3.87;;
19589;SDS011;12231;42.782;23.388;2023-02-03T04:52:54;3.90;;;3.60;;
19589;SDS011;12231;42.782;23.388;2023-02-03T04:55:20;3.67;;;3.13;;
19589;SDS011;12231;42.782;23.388;2023-02-03T04:57:45;4.93;;;3.67;;
19589;SDS011;12231;42.782;23.388;2023-02-03T05:00:10;4.23;;;3.80;;
19589;SDS011;12231;42.782;23.388;2023-02-03T05:02:36;4.63;;;3.80;;
19589;SDS011;12231;42.782;23.388;2023-02-03T05:05:02;3.43;;;3.20;;
19589;SDS011;12231;42.782;23.388;2023-02-03T05:07:27;3.80;;;3.43;;
19589;SDS011;12231;42.782;23.388;2023-02-03T05:09:53;4.90;;;3.60;;
19589;SDS011;12231;42.782;23.388;2023-02-03T05:12:18;4.60;;;3.90;;
19589;SDS011;12231;42.782;23.388;2023-02-03T05:14:43;4.03;;;3.37;;
19589;SDS011;12231;42.782;23.388;2023-02-03T05:17:09;3.70;;;3.40;;
19589;SDS011;12231;42.782;23.388;2023-02-03T05:19:34;4.03;;;3.63;;
19589;SDS011;12231;42.782;23.388;2023-02-03T05:21:59;4.97;;;3.77;;
19589;SDS011;12231;42.782;23.388;2023-02-03T05:24:25;4.43;;;3.57;;
19589;SDS011;12231;42.782;23.388;2023-02-03T05:26:50;4.60;;;3.60;;
19589;SDS011;12231;42.782;23.388;2023-02-03T05:29:16;6.07;;;3.83;;
19589;SDS011;12231;42.782;23.388;2023-02-03T05:31:41;6.17;;;4.20;;
19589;SDS011;12231;42.782;23.388;2023-02-03T05:34:06;6.47;;;4.23;;
19589;SDS011;12231;42.782;23.388;2023-02-03T05:36:32;5.00;;;4.00;;
19589;SDS011;12231;42.782;23.388;2023-02-03T05:38:57;5.17;;;4.40;;
19589;SDS011;12231;42.782;23.388;2023-02-03T05:41:23;7.50;;;4.80;;
19589;SDS011;12231;42.782;23.388;2023-02-03T05:44:06;6.10;;;5.50;;
19589;SDS011;12231;42.782;23.388;2023-02-03T05:46:32;5.87;;;4.90;;
19589;SDS011;12231;42.782;23.388;2023-02-03T05:48:57;7.03;;;5.43;;
19589;SDS011;12231;42.782;23.388;2023-02-03T05:51:22;5.83;;;4.87;;
19589;SDS011;12231;42.782;23.388;2023-02-03T05:53:49;6.57;;;5.53;;
19589;SDS011;12231;42.782;23.388;2023-02-03T05:56:14;7.57;;;5.63;;
19589;SDS011;12231;42.782;23.388;2023-02-03T05:58:40;9.40;;;5.70;;
19589;SDS011;12231;42.782;23.388;2023-02-03T06:01:05;6.60;;;4.73;;
19589;SDS011;12231;42.782;23.388;2023-02-03T06:03:30;15.00;;;8.37;;
19589;SDS011;12231;42.782;23.388;2023-02-03T06:05:56;16.23;;;10.10;;
19589;SDS011;12231;42.782;23.388;2023-02-03T06:08:22;27.77;;;16.13;;
19589;SDS011;12231;42.782;23.388;2023-02-03T06:10:55;11.60;;;7.47;;
19589;SDS011;12231;42.782;23.388;2023-02-03T06:13:21;8.07;;;5.90;;
19589;SDS011;12231;42.782;23.388;2023-02-03T06:15:47;6.73;;;5.73;;
19589;SDS011;12231;42.782;23.388;2023-02-03T06:18:12;7.43;;;5.27;;
19589;SDS011;12231;42.782;23.388;2023-02-03T06:20:37;8.63;;;6.27;;
19589;SDS011;12231;42.782;23.388;2023-02-03T06:23:03;6.60;;;5.97;;
19589;SDS011;12231;42.782;23.388;2023-02-03T06:25:28;5.53;;;4.70;;
19589;SDS011;12231;42.782;23.388;2023-02-03T06:27:56;6.33;;;4.47;;
19589;SDS011;12231;42.782;23.388;2023-02-03T06:30:21;8.00;;;5.77;;
19589;SDS011;12231;42.782;23.388;2023-02-03T06:32:48;7.90;;;5.90;;
19589;SDS011;12231;42.782;23.388;2023-02-03T06:35:13;8.17;;;5.40;;
19589;SDS011;12231;42.782;23.388;2023-02-03T06:37:39;8.37;;;5.43;;
19589;SDS011;12231;42.782;23.388;2023-02-03T06:40:05;8.53;;;5.10;;
19589;SDS011;12231;42.782;23.388;2023-02-03T06:42:31;7.90;;;5.80;;
19589;SDS011;12231;42.782;23.388;2023-02-03T06:44:57;6.57;;;5.13;;
19589;SDS011;12231;42.782;23.388;2023-02-03T06:47:22;32.70;;;13.00;;
19589;SDS011;12231;42.782;23.388;2023-02-03T06:49:48;46.47;;;17.80;;
19589;SDS011;12231;42.782;23.388;2023-02-03T06:52:13;38.83;;;16.10;;
19589;SDS011;12231;42.782;23.388;2023-02-03T06:54:39;40.67;;;17.50;;
19589;SDS011;12231;42.782;23.388;2023-02-03T06:57:05;35.90;;;15.93;;
19589;SDS011;12231;42.782;23.388;2023-02-03T06:59:31;16.93;;;10.40;;
19589;SDS011;12231;42.782;23.388;2023-02-03T07:01:56;11.37;;;7.70;;
19589;SDS011;12231;42.782;23.388;2023-02-03T07:04:21;5.97;;;4.90;;
19589;SDS011;12231;42.782;23.388;2023-02-03T07:06:47;4.80;;;4.00;;
19589;SDS011;12231;42.782;23.388;2023-02-03T07:09:13;4.60;;;3.50;;
19589;SDS011;12231;42.782;23.388;2023-02-03T07:11:39;23.87;;;14.47;;
19589;SDS011;12231;42.782;23.388;2023-02-03T07:14:04;5.43;;;3.50;;
19589;SDS011;12231;42.782;23.388;2023-02-03T07:16:30;3.80;;;3.00;;
19589;SDS011;12231;42.782;23.388;2023-02-03T07:18:56;3.50;;;3.20;;
19589;SDS011;12231;42.782;23.388;2023-02-03T07:21:22;3.57;;;2.90;;
19589;SDS011;12231;42.782;23.388;2023-02-03T07:23:48;3.20;;;2.70;;
19589;SDS011;12231;42.782;23.388;2023-02-03T07:26:14;2.97;;;2.60;;
19589;SDS011;12231;42.782;23.388;2023-02-03T07:28:40;2.67;;;2.47;;
19589;SDS011;12231;42.782;23.388;2023-02-03T07:31:05;3.20;;;2.90;;
19589;SDS011;12231;42.782;23.388;2023-02-03T07:33:34;4.90;;;3.70;;
19589;SDS011;12231;42.782;23.388;2023-02-03T07:36:00;3.40;;;3.00;;
19589;SDS011;12231;42.782;23.388;2023-02-03T07:38:26;2.87;;;2.47;;
19589;SDS011;12231;42.782;23.388;2023-02-03T07:40:52;6.77;;;3.70;;
19589;SDS011;12231;42.782;23.388;2023-02-03T07:43:18;2.97;;;2.67;;
19589;SDS011;12231;42.782;23.388;2023-02-03T07:45:43;3.20;;;2.60;;
19589;SDS011;12231;42.782;23.388;2023-02-03T07:48:09;4.93;;;3.23;;
19589;SDS011;12231;42.782;23.388;2023-02-03T07:50:35;4.27;;;2.93;;
19589;SDS011;12231;42.782;23.388;2023-02-03T07:53:00;5.57;;;3.40;;
19589;SDS011;12231;42.782;23.388;2023-02-03T07:55:26;13.80;;;5.67;;
19589;SDS011;12231;42.782;23.388;2023-02-03T07:57:52;10.83;;;3.23;;
19589;SDS011;12231;42.782;23.388;2023-02-03T08:00:19;4.50;;;2.93;;
19589;SDS011;12231;42.782;23.388;2023-02-03T08:02:44;6.33;;;3.50;;
19589;SDS011;12231;42.782;23.388;2023-02-03T08:05:11;10.30;;;4.63;;
19589;SDS011;12231;42.782;23.388;2023-02-03T08:07:37;2.60;;;2.03;;
19589;SDS011;12231;42.782;23.388;2023-02-03T08:10:03;1.80;;;1.70;;
19589;SDS011;12231;42.782;23.388;2023-02-03T08:12:28;2.00;;;1.80;;
19589;SDS011;12231;42.782;23.388;2023-02-03T08:14:54;2.78;;;2.35;;
19589;SDS011;12231;42.782;23.388;2023-02-03T08:17:20;2.35;;;1.70;;
19589;SDS011;12231;42.782;23.388;2023-02-03T08:19:47;1.30;;;1.20;;
19589;SDS011;12231;42.782;23.388;2023-02-03T08:22:12;2.87;;;2.13;;
19589;SDS011;12231;42.782;23.388;2023-02-03T08:24:40;1.48;;;1.48;;
19589;SDS011;12231;42.782;23.388;2023-02-03T08:27:09;1.73;;;1.63;;
19589;SDS011;12231;42.782;23.388;2023-02-03T08:29:39;1.73;;;1.50;;
19589;SDS011;12231;42.782;23.388;2023-02-03T08:32:04;1.83;;;1.48;;
19589;SDS011;12231;42.782;23.388;2023-02-03T08:34:32;2.85;;;2.65;;
19589;SDS011;12231;42.782;23.388;2023-02-03T08:36:58;6.40;;;3.47;;
19589;SDS011;12231;42.782;23.388;2023-02-03T08:39:24;2.25;;;1.33;;
19589;SDS011;12231;42.782;23.388;2023-02-03T08:41:49;2.88;;;1.85;;
19589;SDS011;12231;42.782;23.388;2023-02-03T08:44:14;2.87;;;1.60;;
19589;SDS011;12231;42.782;23.388;2023-02-03T08:46:40;3.33;;;2.30;;
19589;SDS011;12231;42.782;23.388;2023-02-03T08:49:08;9.33;;;5.90;;
19589;SDS011;12231;42.782;23.388;2023-02-03T08:51:34;3.60;;;2.73;;
19589;SDS011;12231;42.782;23.388;2023-02-03T08:53:59;2.20;;;2.00;;
19589;SDS011;12231;42.782;23.388;2023-02-03T08:56:25;3.70;;;2.90;;
19589;SDS011;12231;42.782;23.388;2023-02-03T08:58:51;3.70;;;3.00;;
19589;SDS011;12231;42.782;23.388;2023-02-03T09:01:17;2.25;;;1.88;;
19589;SDS011;12231;42.782;23.388;2023-02-03T09:03:42;3.40;;;2.75;;
19589;SDS011;12231;42.782;23.388;2023-02-03T09:06:08;2.25;;;2.05;;
19589;SDS011;12231;42.782;23.388;2023-02-03T09:08:36;1.25;;;1.23;;
19589;SDS011;12231;42.782;23.388;2023-02-03T09:11:01;2.15;;;2.05;;
19589;SDS011;12231;42.782;23.388;2023-02-03T09:13:27;2.45;;;1.40;;
19589;SDS011;12231;42.782;23.388;2023-02-03T09:15:52;1.88;;;1.70;;
19589;SDS011;12231;42.782;23.388;2023-02-03T09:18:18;3.47;;;2.40;;
19589;SDS011;12231;42.782;23.388;2023-02-03T09:20:43;3.03;;;2.05;;
19589;SDS011;12231;42.782;23.388;2023-02-03T09:23:08;2.95;;;1.80;;
19589;SDS011;12231;42.782;23.388;2023-02-03T09:25:34;3.65;;;2.10;;
19589;SDS011;12231;42.782;23.388;2023-02-03T09:28:02;5.45;;;4.85;;
19589;SDS011;12231;42.782;23.388;2023-02-03T09:30:27;2.20;;;2.00;;
19589;SDS011;12231;42.782;23.388;2023-02-03T09:32:53;2.25;;;2.05;;
19589;SDS011;12231;42.782;23.388;2023-02-03T09:35:20;2.70;;;2.03;;
19589;SDS011;12231;42.782;23.388;2023-02-03T09:37:46;1.60;;;1.30;;
19589;SDS011;12231;42.782;23.388;2023-02-03T09:40:16;1.63;;;1.52;;
19589;SDS011;12231;42.782;23.388;2023-02-03T09:45:48;1.70;;;1.60;;
19589;SDS011;12231;42.782;23.388;2023-02-03T09:48:20;2.55;;;1.80;;
19589;SDS011;12231;42.782;23.388;2023-02-03T09:50:48;3.35;;;1.67;;
19589;SDS011;12231;42.782;23.388;2023-02-03T09:53:22;2.30;;;2.17;;
19589;SDS011;12231;42.782;23.388;2023-02-03T09:55:54;1.93;;;1.70;;
19589;SDS011;12231;42.782;23.388;2023-02-03T09:58:22;2.80;;;1.70;;
19589;SDS011;12231;42.782;23.388;2023-02-03T10:00:53;2.83;;;2.20;;
19589;SDS011;12231;42.782;23.388;2023-02-03T10:09:08;2.30;;;2.10;;
19589;SDS011;12231;42.782;23.388;2023-02-03T10:19:35;1.60;;;1.50;;
19589;SDS011;12231;42.782;23.388;2023-02-03T10:22:19;1.50;;;1.40;;
19589;SDS011;12231;42.782;23.388;2023-02-03T10:25:30;1.60;;;1.50;;
19589;SDS011;12231;42.782;23.388;2023-02-03T10:27:38;1.33;;;1.30;;
19589;SDS011;12231;42.782;23.388;2023-02-03T10:35:53;2.83;;;1.70;;
19589;SDS011;12231;42.782;23.388;2023-02-03T10:41:28;5.73;;;3.87;;
19589;SDS011;12231;42.782;23.388;2023-02-03T10:43:55;4.33;;;4.03;;
19589;SDS011;12231;42.782;23.388;2023-02-03T10:46:29;3.07;;;2.03;;
19589;SDS011;12231;42.782;23.388;2023-02-03T10:48:57;3.00;;;2.77;;
19589;SDS011;12231;42.782;23.388;2023-02-03T10:51:35;1.73;;;1.63;;
19589;SDS011;12231;42.782;23.388;2023-02-03T10:54:02;3.67;;;2.37;;
19589;SDS011;12231;42.782;23.388;2023-02-03T10:56:28;3.07;;;1.83;;
19589;SDS011;12231;42.782;23.388;2023-02-03T10:58:57;3.13;;;2.73;;
19589;SDS011;12231;42.782;23.388;2023-02-03T11:04:00;2.13;;;1.70;;
19589;SDS011;12231;42.782;23.388;2023-02-03T11:06:28;5.17;;;3.70;;
19589;SDS011;12231;42.782;23.388;2023-02-03T11:08:54;5.07;;;4.67;;
19589;SDS011;12231;42.782;23.388;2023-02-03T11:11:21;2.90;;;2.70;;
19589;SDS011;12231;42.782;23.388;2023-02-03T11:14:09;2.83;;;2.63;;
19589;SDS011;12231;42.782;23.388;2023-02-03T11:16:37;1.93;;;1.80;;
19589;SDS011;12231;42.782;23.388;2023-02-03T11:19:03;3.20;;;2.83;;
19589;SDS011;12231;42.782;23.388;2023-02-03T11:21:32;3.60;;;2.63;;
19589;SDS011;12231;42.782;23.388;2023-02-03T11:26:49;5.87;;;3.07;;
19589;SDS011;12231;42.782;23.388;2023-02-03T11:31:59;3.20;;;2.57;;
19589;SDS011;12231;42.782;23.388;2023-02-03T11:34:34;3.77;;;3.10;;
19589;SDS011;12231;42.782;23.388;2023-02-03T11:39:56;2.90;;;2.43;;
19589;SDS011;12231;42.782;23.388;2023-02-03T11:42:30;2.77;;;2.30;;
19589;SDS011;12231;42.782;23.388;2023-02-03T11:45:11;2.50;;;1.93;;
19589;SDS011;12231;42.782;23.388;2023-02-03T11:47:43;4.63;;;3.50;;
19589;SDS011;12231;42.782;23.388;2023-02-03T12:27:03;1.90;;;1.70;;
19589;SDS011;12231;42.782;23.388;2023-02-03T12:29:54;3.07;;;2.00;;
19589;SDS011;12231;42.782;23.388;2023-02-03T12:32:44;2.27;;;2.07;;
19589;SDS011;12231;42.782;23.388;2023-02-03T12:35:24;2.40;;;2.03;;
19589;SDS011;12231;42.782;23.388;2023-02-03T12:40:51;7.53;;;3.57;;
19589;SDS011;12231;42.782;23.388;2023-02-03T12:54:32;2.60;;;2.37;;
19589;SDS011;12231;42.782;23.388;2023-02-03T12:57:16;2.23;;;2.03;;
19589;SDS011;12231;42.782;23.388;2023-02-03T12:59:52;2.20;;;2.00;;
19589;SDS011;12231;42.782;23.388;2023-02-03T13:02:55;3.00;;;2.33;;
19589;SDS011;12231;42.782;23.388;2023-02-03T13:05:41;4.07;;;2.80;;
19589;SDS011;12231;42.782;23.388;2023-02-03T13:11:19;3.50;;;2.77;;
19589;SDS011;12231;42.782;23.388;2023-02-03T13:13:54;4.30;;;2.50;;
19589;SDS011;12231;42.782;23.388;2023-02-03T13:16:24;1.80;;;1.70;;
19589;SDS011;12231;42.782;23.388;2023-02-03T13:18:57;4.03;;;2.00;;
19589;SDS011;12231;42.782;23.388;2023-02-03T13:21:27;2.00;;;1.80;;
19589;SDS011;12231;42.782;23.388;2023-02-03T13:23:53;7.23;;;3.10;;
19589;SDS011;12231;42.782;23.388;2023-02-03T13:37:09;3.40;;;2.13;;
19589;SDS011;12231;42.782;23.388;2023-02-03T13:42:33;4.07;;;2.17;;
19589;SDS011;12231;42.782;23.388;2023-02-03T13:47:39;2.33;;;1.77;;
19589;SDS011;12231;42.782;23.388;2023-02-03T13:50:43;2.60;;;2.40;;
19589;SDS011;12231;42.782;23.388;2023-02-03T13:53:07;4.87;;;3.03;;
19589;SDS011;12231;42.782;23.388;2023-02-03T13:55:58;3.53;;;2.30;;
19589;SDS011;12231;42.782;23.388;2023-02-03T13:58:29;3.23;;;2.70;;
19589;SDS011;12231;42.782;23.388;2023-02-03T14:00:59;6.83;;;3.57;;
19589;SDS011;12231;42.782;23.388;2023-02-03T14:05:54;3.17;;;2.60;;
19589;SDS011;12231;42.782;23.388;2023-02-03T14:19:53;8.00;;;4.13;;
19589;SDS011;12231;42.782;23.388;2023-02-03T14:21:54;3.50;;;2.20;;
19589;SDS011;12231;42.782;23.388;2023-02-03T14:24:23;3.20;;;2.90;;
19589;SDS011;12231;42.782;23.388;2023-02-03T14:26:58;6.10;;;4.77;;
19589;SDS011;12231;42.782;23.388;2023-02-03T14:32:02;7.67;;;6.17;;
19589;SDS011;12231;42.782;23.388;2023-02-03T14:34:30;4.60;;;4.13;;
19589;SDS011;12231;42.782;23.388;2023-02-03T14:36:55;6.83;;;4.97;;
19589;SDS011;12231;42.782;23.388;2023-02-03T14:40:15;6.20;;;5.03;;
19589;SDS011;12231;42.782;23.388;2023-02-03T14:56:45;3.50;;;3.10;;
19589;SDS011;12231;42.782;23.388;2023-02-03T15:00:01;5.17;;;2.90;;
19589;SDS011;12231;42.782;23.388;2023-02-03T15:02:35;4.77;;;3.00;;
19589;SDS011;12231;42.782;23.388;2023-02-03T15:10:13;2.90;;;2.70;;
19589;SDS011;12231;42.782;23.388;2023-02-03T15:12:50;3.67;;;3.10;;
19589;SDS011;12231;42.782;23.388;2023-02-03T15:15:18;4.13;;;2.77;;
19589;SDS011;12231;42.782;23.388;2023-02-03T15:17:46;3.30;;;2.93;;
19589;SDS011;12231;42.782;23.388;2023-02-03T15:22:55;6.33;;;3.13;;
19589;SDS011;12231;42.782;23.388;2023-02-03T15:25:21;5.83;;;3.40;;
19589;SDS011;12231;42.782;23.388;2023-02-03T15:27:49;5.53;;;3.30;;
19589;SDS011;12231;42.782;23.388;2023-02-03T15:32:42;5.97;;;3.17;;
19589;SDS011;12231;42.782;23.388;2023-02-03T15:35:15;5.93;;;4.00;;
19589;SDS011;12231;42.782;23.388;2023-02-03T15:40:18;10.53;;;6.43;;
19589;SDS011;12231;42.782;23.388;2023-02-03T15:45:20;8.20;;;4.73;;
19589;SDS011;12231;42.782;23.388;2023-02-03T15:51:49;29.33;;;17.20;;
19589;SDS011;12231;42.782;23.388;2023-02-03T15:54:06;20.60;;;11.70;;
19589;SDS011;12231;42.782;23.388;2023-02-03T15:56:47;20.60;;;9.50;;
19589;SDS011;12231;42.782;23.388;2023-02-03T16:01:53;19.87;;;10.00;;
19589;SDS011;12231;42.782;23.388;2023-02-03T16:04:18;29.00;;;17.57;;
19589;SDS011;12231;42.782;23.388;2023-02-03T16:06:46;25.53;;;15.57;;
19589;SDS011;12231;42.782;23.388;2023-02-03T16:12:25;53.33;;;27.10;;
19589;SDS011;12231;42.782;23.388;2023-02-03T16:14:56;39.97;;;21.07;;
19589;SDS011;12231;42.782;23.388;2023-02-03T16:17:23;38.43;;;21.27;;
19589;SDS011;12231;42.782;23.388;2023-02-03T16:20:19;45.20;;;23.57;;
19589;SDS011;12231;42.782;23.388;2023-02-03T16:23:15;42.27;;;24.17;;
19589;SDS011;12231;42.782;23.388;2023-02-03T16:28:40;67.57;;;29.73;;
19589;SDS011;12231;42.782;23.388;2023-02-03T16:31:24;68.67;;;28.80;;
19589;SDS011;12231;42.782;23.388;2023-02-03T16:34:13;61.60;;;28.67;;
19589;SDS011;12231;42.782;23.388;2023-02-03T16:36:59;58.20;;;28.57;;
19589;SDS011;12231;42.782;23.388;2023-02-03T16:39:43;69.50;;;34.13;;
19589;SDS011;12231;42.782;23.388;2023-02-03T16:42:28;50.73;;;26.53;;
19589;SDS011;12231;42.782;23.388;2023-02-03T16:45:23;43.20;;;24.70;;
19589;SDS011;12231;42.782;23.388;2023-02-03T16:48:11;39.93;;;22.40;;
19589;SDS011;12231;42.782;23.388;2023-02-03T16:50:56;39.53;;;23.13;;
19589;SDS011;12231;42.782;23.388;2023-02-03T16:53:28;57.80;;;27.03;;
19589;SDS011;12231;42.782;23.388;2023-02-03T16:55:56;51.33;;;25.13;;
19589;SDS011;12231;42.782;23.388;2023-02-03T16:58:23;51.47;;;22.73;;
19589;SDS011;12231;42.782;23.388;2023-02-03T17:00:50;54.20;;;23.00;;
19589;SDS011;12231;42.782;23.388;2023-02-03T17:03:18;92.20;;;31.83;;
19589;SDS011;12231;42.782;23.388;2023-02-03T17:05:45;55.30;;;23.43;;
19589;SDS011;12231;42.782;23.388;2023-02-03T17:08:12;43.50;;;20.90;;
19589;SDS011;12231;42.782;23.388;2023-02-03T17:10:39;42.87;;;22.73;;
19589;SDS011;12231;42.782;23.388;2023-02-03T17:13:05;40.63;;;19.63;;
19589;SDS011;12231;42.782;23.388;2023-02-03T17:15:32;52.57;;;18.97;;
19589;SDS011;12231;42.782;23.388;2023-02-03T17:17:58;38.33;;;20.07;;
19589;SDS011;12231;42.782;23.388;2023-02-03T17:20:23;33.37;;;16.40;;
19589;SDS011;12231;42.782;23.388;2023-02-03T17:22:49;28.67;;;15.60;;
19589;SDS011;12231;42.782;23.388;2023-02-03T17:25:18;26.80;;;15.47;;
19589;SDS011;12231;42.782;23.388;2023-02-03T17:27:44;27.43;;;14.50;;
19589;SDS011;12231;42.782;23.388;2023-02-03T17:30:10;33.83;;;16.83;;
19589;SDS011;12231;42.782;23.388;2023-02-03T17:32:36;40.00;;;18.33;;
19589;SDS011;12231;42.782;23.388;2023-02-03T17:35:02;29.30;;;13.97;;
19589;SDS011;12231;42.782;23.388;2023-02-03T17:37:27;18.47;;;10.20;;
19589;SDS011;12231;42.782;23.388;2023-02-03T17:39:56;21.87;;;11.30;;
19589;SDS011;12231;42.782;23.388;2023-02-03T17:42:21;29.03;;;15.90;;
19589;SDS011;12231;42.782;23.388;2023-02-03T17:44:46;32.17;;;19.23;;
19589;SDS011;12231;42.782;23.388;2023-02-03T17:47:12;30.00;;;18.67;;
19589;SDS011;12231;42.782;23.388;2023-02-03T17:49:37;33.87;;;19.13;;
19589;SDS011;12231;42.782;23.388;2023-02-03T17:52:03;26.90;;;16.87;;
19589;SDS011;12231;42.782;23.388;2023-02-03T17:54:28;27.10;;;16.40;;
19589;SDS011;12231;42.782;23.388;2023-02-03T17:56:54;29.40;;;16.53;;
19589;SDS011;12231;42.782;23.388;2023-02-03T17:59:19;24.60;;;14.20;;